METAR Data
IDs: Format: Raw Decoded Include TAF

Data at: 1545 UTC 24 Aug 2019

PAMK 241456Z AUTO 32003KT 10SM OVC020 09/07 A2985 RMK AO2 SLP108 T00890067 53006
PAMK 241431Z AUTO 32003KT 10SM BKN018 09/07 A2984 RMK AO2
PAMK 241356Z AUTO 01003KT 10SM FEW020 11/07 A2984 RMK AO2 SLP103 T01060072
PAMK 241256Z AUTO 02008KT 10SM SCT022 11/07 A2983 RMK AO2 SLP102 T01060072
PAMK 241241Z AUTO 03007KT 10SM SCT022 11/07 A2983 RMK AO2
PAMK 241233Z AUTO 03006KT 10SM BKN022 11/07 A2983 RMK AO2
PAMK 241156Z AUTO 02006KT 10SM SCT024 11/08 A2983 RMK AO2 SLP101 60001 70001 T01060078 10117 20094 53007
PAMK 241116Z AUTO 02008KT 10SM BKN024 BKN038 11/08 A2982 RMK AO2
PAMK 241056Z AUTO 03008KT 10SM SCT026 SCT034 11/08 A2982 RMK AO2 SLP098 T01110078
PAMK 241012Z AUTO 01008KT 10SM BKN028 BKN033 11/07 A2981 RMK AO2
PAMK 240956Z AUTO 02008KT 10SM SCT030 11/06 A2981 RMK AO2 SLP096 T01110061
PAMK 240856Z AUTO 01008KT 10SM SCT028 11/07 A2981 RMK AO2 SLP094 P0001 60001 T01060072 401390094 51009
PAMK 240756Z AUTO 33004KT 10SM FEW029 10/07 A2980 RMK AO2 SLP092 T01000072
PAMK 240656Z AUTO 27003KT 10SM FEW028 SCT043 11/09 A2979 RMK AO2 SLP088 T01110089
PAMK 240648Z AUTO 00000KT 10SM FEW028 BKN043 11/09 A2979 RMK AO2
PAMK 240613Z AUTO 00000KT 10SM BKN026 BKN034 OVC041 11/09 A2978 RMK AO2
PAMK 240556Z AUTO 06003KT 10SM OVC037 11/09 A2978 RMK AO2 WSHFT 0508 SLP085 T01110094 10139 20111 53004
PAMK 240534Z AUTO 03012KT 9SM FEW012 SCT021 OVC035 12/09 A2978 RMK AO2 WSHFT 0508
PAMK 240522Z AUTO 02012KT 10SM FEW010 BKN020 OVC045 12/10 A2977 RMK AO2 WSHFT 0508
PAMK 240456Z AUTO 34011KT 10SM FEW020 BKN045 13/09 A2977 RMK AO2 SLP081 T01330089
PAMK 240446Z AUTO 33010KT 10SM SCT020 BKN047 12/09 A2977 RMK AO2
PAMK 240356Z AUTO 34011KT 10SM OVC020 13/09 A2977 RMK AO2 SLP080 T01330089
PAMK 240337Z AUTO 33011KT 10SM BKN018 BKN024 OVC049 13/09 A2977 RMK AO2
PAMK 240256Z AUTO 33013KT 10SM FEW018 OVC043 13/09 A2977 RMK AO2 SLP081 T01280089 56004
PAMK 240156Z AUTO 33013KT 10SM OVC043 13/08 A2977 RMK AO2 SLP081 T01330078
PAMK 240056Z AUTO 33011KT 10SM OVC043 13/07 A2977 RMK AO2 SLP082 T01330072
PAMK 232356Z AUTO 33008KT 10SM OVC041 13/06 A2978 RMK AO2 SLP084 T01330061 10133 20111 50001
PAMK 232256Z AUTO 32008KT 10SM OVC037 12/07 A2978 RMK AO2 SLP086 T01220072
PAMK 232156Z AUTO 32008KT 10SM FEW019 OVC039 12/07 A2978 RMK AO2 SLP085 T01170072
PAMK 232108Z AUTO 32010KT 10SM SCT021 SCT028 OVC045 12/08 A2978 RMK AO2
PAMK 232056Z AUTO 33009KT 10SM BKN023 BKN030 OVC047 12/08 A2978 RMK AO2 SLP083 T01170078 50002
PAMK 232014Z AUTO 01009KT 10SM BKN027 OVC034 12/07 A2978 RMK AO2
PAMK 231956Z AUTO 06005KT 10SM FEW021 OVC030 12/07 A2978 RMK AO2 SLP083 T01170072
PAMK 231856Z AUTO 04009KT 10SM FEW022 OVC033 11/07 A2977 RMK AO2 SLP083 T01110067
PAMK 231803Z AUTO 03012KT 10SM SCT023 SCT027 OVC037 11/06 A2977 RMK AO2
PAMK 231756Z AUTO 04011KT 10SM SCT021 BKN027 BKN039 11/06 A2977 RMK AO2 SLP082 T01110061 10111 20106 51004
PAMK 231719Z AUTO 03010KT 10SM BKN021 BKN030 OVC038 11/07 A2977 RMK AO2
PAMK 231656Z AUTO 03012KT 10SM FEW021 OVC036 11/07 A2976 RMK AO2 SLP079 T01060067
PAMK 231556Z AUTO 03009KT 10SM SCT019 OVC034 11/08 A2976 RMK AO2 SLP079 T01110078
PAMK 231456Z AUTO 02009KT 10SM SCT017 OVC036 11/08 A2976 RMK AO2 SLP076 T01060078 51006
PAMK 231356Z AUTO 02010KT 10SM FEW019 BKN034 11/08 A2975 RMK AO2 SLP076 T01060078
PAMK 231348Z AUTO 02010KT 10SM FEW019 SCT026 BKN036 11/08 A2976 RMK AO2
PAMK 231256Z AUTO 02008KT 10SM BKN019 11/08 A2975 RMK AO2 SLP074 T01060078
PAMK 231233Z AUTO 02009KT 10SM BKN017 11/08 A2974 RMK AO2
PAMK 231156Z AUTO 02011KT 10SM SCT017 BKN055 11/08 A2974 RMK AO2 SLP071 T01110078 10133 20106 50002
PAMK 231127Z AUTO 02013KT 10SM SCT019 SCT049 11/08 A2974 RMK AO2
PAMK 231056Z AUTO 02009KT 10SM BKN019 11/08 A2974 RMK AO2 SLP072 T01110078
PAMK 230956Z AUTO 02012KT 10SM SCT050 12/08 A2974 RMK AO2 SLP070 T01170083
PAMK 230856Z AUTO 02014KT 10SM FEW050 12/08 A2973 RMK AO2 SLP069 T01220083 401390111 53007
PAMK 230756Z AUTO 02009KT 10SM BKN031 BKN050 13/09 A2972 RMK AO2 SLP063 T01280089
PAMK 230656Z AUTO 29005KT 10SM CLR 12/08 A2971 RMK AO2 SLP062 T01170083
PAMK 230556Z AUTO 31007KT 10SM CLR 12/08 A2971 RMK AO2 SLP062 T01170083 10139 20117 55001
PAMK 230456Z AUTO 32008KT 10SM CLR 13/09 A2971 RMK AO2 SLP061 T01330089
PAMK 230356Z AUTO 34008KT 10SM CLR 14/08 A2971 RMK AO2 SLP061 T01390078